Historique des mesures à Cassis (13260), France
Quotidien Résumé Juin 8, 2017 Unités:  US    Métrique   Métrique/US
« Précédent (Jour)
Suivant (Jour) »
Quotidien Hebdomadaire Mensuel Annuel Période au choix
  Maximum: Minimum: Moyenne:
Température: 32 °F 62.4 °F 69.4 °F
Point de rosée: 32 °F 39.7 °F 49.5 °F
Humidité: Humidity % 39 % 47 %
Vitesse du vent: WindSpeedKMH mph 0.0 mph 4 mph
Rafales: WindSpeedGustKMH mph - -
Vent:- - South
Pression: 0 in 29.9 in -
Précipitations: 0 in    
Historical Graphs
 
 
Mesures pour : Juin 8, 2017
Heure Temperature Point de rosée Pression Vent Vitesse du vent Rafales Humidité Pluie (par heure) Conditions
32 °F 32 °F 0 in Calm     Humidity % 0 in SoftwareType W/m2
00:11 66.4 °F 40.6 °F 29.9 in North 33.8 mph 33.8 mph 39 % 0 in open2300-1.11 W/m2
01:10 66 °F 41 °F 29.9 in Calm     40 % 0 in open2300-1.11 W/m2
02:10 63.3 °F 40.3 °F 29.9 in SE 6.1 mph 6.1 mph 43 % 0 in open2300-1.11 W/m2
03:10 62.4 °F 40.1 °F 29.9 in NNE 5.0 mph 5.0 mph 44 % 0 in open2300-1.11 W/m2
04:10 62.8 °F 39.7 °F 29.9 in NNE 1.4 mph 4.7 mph 43 % 0 in open2300-1.11 W/m2
05:10 63.1 °F 40.6 °F 29.9 in Calm   4.7 mph 44 % 0 in open2300-1.11 W/m2
06:10 62.4 °F 41.2 °F 29.9 in NNW 4.7 mph 4.7 mph 46 % 0 in open2300-1.11 W/m2
07:10 63.7 °F 43.5 °F 29.9 in Calm   1.4 mph 48 % 0 in open2300-1.11 W/m2
08:10 70.3 °F 47.3 °F 30 in Calm   1.4 mph 44 % 0 in open2300-1.11 W/m2
09:10 68.7 °F 46.9 °F 30 in SE 3.2 mph 7.6 mph 46 % 0 in open2300-1.11 W/m2
10:10 73 °F 50.9 °F 30 in Calm   3.5 mph 46 % 0 in open2300-1.11 W/m2
11:10 79.3 °F 53.1 °F 30 in WNW 1.8 mph 2.1 mph 40 % 0 in open2300-1.11 W/m2
12:10 81.1 °F 55.2 °F 30 in SSE 2.9 mph 9.0 mph 41 % 0 in open2300-1.11 W/m2
13:10 81.7 °F 55.8 °F 30 in South 5.8 mph 6.1 mph 41 % 0 in open2300-1.11 W/m2
14:10 80.4 °F 56.5 °F 30 in Calm   6.1 mph 44 % 0 in open2300-1.11 W/m2
15:10 79.5 °F 57.6 °F 30 in West 1.1 mph 11.1 mph 47 % 0 in open2300-1.11 W/m2
16:10 79 °F 58.8 °F 30 in WSW 10.1 mph 10.1 mph 50 % 0 in open2300-1.11 W/m2
17:10 76.8 °F 59.4 °F 29.9 in SW 6.4 mph 17.2 mph 55 % 0 in open2300-1.11 W/m2
18:10 75.4 °F 57.6 °F 29.9 in SW 1.8 mph 6.4 mph 54 % 0 in open2300-1.11 W/m2
19:10 73.2 °F 56.5 °F 29.9 in SSE 5.8 mph 6.4 mph 56 % 0 in open2300-1.11 W/m2
20:11 71.8 °F 56.7 °F 29.9 in West 5.5 mph 5.5 mph 59 % 0 in open2300-1.11 W/m2
21:10 70 °F 56.8 °F 29.9 in South 2.1 mph 2.1 mph 63 % 0 in open2300-1.11 W/m2
22:10 67.3 °F 55.6 °F 29.9 in NNE 2.1 mph 2.1 mph 66 % 0 in open2300-1.11 W/m2
23:10 66.4 °F 55 °F 29.9 in Calm   1.8 mph 67 % 0 in open2300-1.11 W/m2
Observations météo à CASSIS
WU-History script by Weather Underground - 1 mb